<?xml version="1.0" encoding="UTF-8" standalone="no" ?>
<gpx xmlns="http://www.topografix.com/GPX/1/1" xmlns:xsi="http://www.w3.org/2001/XMLSchema-instance" xsi:schemaLocation="http://www.topografix.com/GPX/1/1 http://www.topografix.com/GPX/1/1/gpx.xsd" version="1.1" creator="VisuGPX - https://www.visugpx.com">
  <metadata>
    <name>CrossTriathlon XS</name>
    <desc><![CDATA[[titre]Triathlon Côte de Granit Rose[/titre]
CrossTriathlon XS
]]></desc>
  </metadata>
  <trk>
    <name><![CDATA[VTT]]></name>
    <extensions>
      <line xmlns="http://www.topografix.com/GPX/gpx_style/0/2">
        <color>223a69</color>
        <opacity>1</opacity>
        <width>4</width>
          <extensions>
            <sens>1</sens>
          </extensions>
      </line>
    </extensions>
    <trkseg>
      <trkpt lat="48.82876" lon="-3.52158">
        <ele>9.38</ele>
        <time>2025-02-22T14:26:22.000Z</time>
      </trkpt>
      <trkpt lat="48.82895" lon="-3.52162">
        <ele>9.99</ele>
        <time>2025-02-22T14:26:22.006Z</time>
      </trkpt>
      <trkpt lat="48.82914" lon="-3.52165">
        <ele>10.61</ele>
        <time>2025-02-22T14:26:22.019Z</time>
      </trkpt>
      <trkpt lat="48.82912" lon="-3.5213">
        <ele>11.34</ele>
        <time>2025-02-22T14:26:22.040Z</time>
      </trkpt>
      <trkpt lat="48.8291" lon="-3.52095">
        <ele>12.27</ele>
        <time>2025-02-22T14:26:22.068Z</time>
      </trkpt>
      <trkpt lat="48.82908" lon="-3.5206">
        <ele>13.17</ele>
        <time>2025-02-22T14:26:22.104Z</time>
      </trkpt>
      <trkpt lat="48.82906" lon="-3.52035">
        <ele>14</ele>
        <time>2025-02-22T14:26:22.146Z</time>
      </trkpt>
      <trkpt lat="48.82903" lon="-3.52009">
        <ele>14.85</ele>
        <time>2025-02-22T14:26:22.193Z</time>
      </trkpt>
      <trkpt lat="48.82903" lon="-3.5201">
        <ele>14.86</ele>
        <time>2025-02-22T14:26:22.240Z</time>
      </trkpt>
      <trkpt lat="48.829" lon="-3.51977">
        <ele>15.89</ele>
        <time>2025-02-22T14:26:22.295Z</time>
      </trkpt>
      <trkpt lat="48.82897" lon="-3.51944">
        <ele>16.98</ele>
        <time>2025-02-22T14:26:22.357Z</time>
      </trkpt>
      <trkpt lat="48.82897" lon="-3.51934">
        <ele>18.05</ele>
        <time>2025-02-22T14:26:22.421Z</time>
      </trkpt>
      <trkpt lat="48.8289" lon="-3.51895">
        <ele>19.34</ele>
        <time>2025-02-22T14:26:22.494Z</time>
      </trkpt>
      <trkpt lat="48.82883" lon="-3.51857">
        <ele>20.66</ele>
        <time>2025-02-22T14:26:22.576Z</time>
      </trkpt>
      <trkpt lat="48.82875" lon="-3.51819">
        <ele>21.94</ele>
        <time>2025-02-22T14:26:22.667Z</time>
      </trkpt>
      <trkpt lat="48.82868" lon="-3.51781">
        <ele>23.18</ele>
        <time>2025-02-22T14:26:22.766Z</time>
      </trkpt>
      <trkpt lat="48.82861" lon="-3.51743">
        <ele>24.01</ele>
        <time>2025-02-22T14:26:22.874Z</time>
      </trkpt>
      <trkpt lat="48.82855" lon="-3.5173">
        <ele>24.52</ele>
        <time>2025-02-22T14:26:22.985Z</time>
      </trkpt>
      <trkpt lat="48.82855" lon="-3.5173">
        <ele>24.53</ele>
        <time>2025-02-22T14:26:23.096Z</time>
      </trkpt>
      <trkpt lat="48.82844" lon="-3.51705">
        <ele>24.81</ele>
        <time>2025-02-22T14:26:23.214Z</time>
      </trkpt>
      <trkpt lat="48.82833" lon="-3.51681">
        <ele>24.78</ele>
        <time>2025-02-22T14:26:23.339Z</time>
      </trkpt>
      <trkpt lat="48.8282" lon="-3.51659">
        <ele>24.58</ele>
        <time>2025-02-22T14:26:23.470Z</time>
      </trkpt>
      <trkpt lat="48.82794" lon="-3.51635">
        <ele>24.14</ele>
        <time>2025-02-22T14:26:23.611Z</time>
      </trkpt>
      <trkpt lat="48.82775" lon="-3.51623">
        <ele>23.72</ele>
        <time>2025-02-22T14:26:23.759Z</time>
      </trkpt>
      <trkpt lat="48.82773" lon="-3.51618">
        <ele>23.3</ele>
        <time>2025-02-22T14:26:23.908Z</time>
      </trkpt>
      <trkpt lat="48.82766" lon="-3.51614">
        <ele>22.85</ele>
        <time>2025-02-22T14:26:24.060Z</time>
      </trkpt>
      <trkpt lat="48.82762" lon="-3.51618">
        <ele>22.37</ele>
        <time>2025-02-22T14:26:24.213Z</time>
      </trkpt>
      <trkpt lat="48.82739" lon="-3.51608">
        <ele>21.85</ele>
        <time>2025-02-22T14:26:24.374Z</time>
      </trkpt>
      <trkpt lat="48.82717" lon="-3.51597">
        <ele>21.37</ele>
        <time>2025-02-22T14:26:24.543Z</time>
      </trkpt>
      <trkpt lat="48.82704" lon="-3.51588">
        <ele>20.99</ele>
        <time>2025-02-22T14:26:24.717Z</time>
      </trkpt>
      <trkpt lat="48.82684" lon="-3.51555">
        <ele>20.59</ele>
        <time>2025-02-22T14:26:24.901Z</time>
      </trkpt>
      <trkpt lat="48.82663" lon="-3.51522">
        <ele>20.18</ele>
        <time>2025-02-22T14:26:25.095Z</time>
      </trkpt>
      <trkpt lat="48.82646" lon="-3.51491">
        <ele>19.78</ele>
        <time>2025-02-22T14:26:25.298Z</time>
      </trkpt>
      <trkpt lat="48.82629" lon="-3.5146">
        <ele>19.3</ele>
        <time>2025-02-22T14:26:25.510Z</time>
      </trkpt>
      <trkpt lat="48.8261" lon="-3.51434">
        <ele>18.83</ele>
        <time>2025-02-22T14:26:25.730Z</time>
      </trkpt>
      <trkpt lat="48.82603" lon="-3.51408">
        <ele>18.34</ele>
        <time>2025-02-22T14:26:25.956Z</time>
      </trkpt>
      <trkpt lat="48.82597" lon="-3.51382">
        <ele>17.93</ele>
        <time>2025-02-22T14:26:26.188Z</time>
      </trkpt>
      <trkpt lat="48.8258" lon="-3.51404">
        <ele>17.59</ele>
        <time>2025-02-22T14:26:26.428Z</time>
      </trkpt>
      <trkpt lat="48.82557" lon="-3.51423">
        <ele>17.28</ele>
        <time>2025-02-22T14:26:26.676Z</time>
      </trkpt>
      <trkpt lat="48.82535" lon="-3.51442">
        <ele>17.02</ele>
        <time>2025-02-22T14:26:26.933Z</time>
      </trkpt>
      <trkpt lat="48.82503" lon="-3.5144">
        <ele>16.59</ele>
        <time>2025-02-22T14:26:27.200Z</time>
      </trkpt>
      <trkpt lat="48.82472" lon="-3.51438">
        <ele>16.26</ele>
        <time>2025-02-22T14:26:27.478Z</time>
      </trkpt>
      <trkpt lat="48.82447" lon="-3.51429">
        <ele>16.03</ele>
        <time>2025-02-22T14:26:27.765Z</time>
      </trkpt>
      <trkpt lat="48.8244" lon="-3.51424">
        <ele>15.85</ele>
        <time>2025-02-22T14:26:28.054Z</time>
      </trkpt>
      <trkpt lat="48.82429" lon="-3.51414">
        <ele>15.73</ele>
        <time>2025-02-22T14:26:28.347Z</time>
      </trkpt>
      <trkpt lat="48.82413" lon="-3.514">
        <ele>15.57</ele>
        <time>2025-02-22T14:26:28.646Z</time>
      </trkpt>
      <trkpt lat="48.82397" lon="-3.51387">
        <ele>15.42</ele>
        <time>2025-02-22T14:26:28.952Z</time>
      </trkpt>
      <trkpt lat="48.82395" lon="-3.51384">
        <ele>15.35</ele>
        <time>2025-02-22T14:26:29.258Z</time>
      </trkpt>
      <trkpt lat="48.82395" lon="-3.51384">
        <ele>15.33</ele>
        <time>2025-02-22T14:26:29.564Z</time>
      </trkpt>
      <trkpt lat="48.82397" lon="-3.51387">
        <ele>15.36</ele>
        <time>2025-02-22T14:26:29.871Z</time>
      </trkpt>
      <trkpt lat="48.8238" lon="-3.51411">
        <ele>15.36</ele>
        <time>2025-02-22T14:26:30.186Z</time>
      </trkpt>
      <trkpt lat="48.82363" lon="-3.51436">
        <ele>15.45</ele>
        <time>2025-02-22T14:26:30.509Z</time>
      </trkpt>
      <trkpt lat="48.82352" lon="-3.51462">
        <ele>15.6</ele>
        <time>2025-02-22T14:26:30.839Z</time>
      </trkpt>
      <trkpt lat="48.82352" lon="-3.51462">
        <ele>15.78</ele>
        <time>2025-02-22T14:26:31.169Z</time>
      </trkpt>
      <trkpt lat="48.82336" lon="-3.51484">
        <ele>16.03</ele>
        <time>2025-02-22T14:26:31.506Z</time>
      </trkpt>
      <trkpt lat="48.8232" lon="-3.51507">
        <ele>16.33</ele>
        <time>2025-02-22T14:26:31.850Z</time>
      </trkpt>
      <trkpt lat="48.82309" lon="-3.51515">
        <ele>16.65</ele>
        <time>2025-02-22T14:26:32.198Z</time>
      </trkpt>
      <trkpt lat="48.82298" lon="-3.51513">
        <ele>16.99</ele>
        <time>2025-02-22T14:26:32.550Z</time>
      </trkpt>
      <trkpt lat="48.82279" lon="-3.51483">
        <ele>17.35</ele>
        <time>2025-02-22T14:26:32.911Z</time>
      </trkpt>
      <trkpt lat="48.82266" lon="-3.51463">
        <ele>17.72</ele>
        <time>2025-02-22T14:26:33.279Z</time>
      </trkpt>
      <trkpt lat="48.82253" lon="-3.51442">
        <ele>18.05</ele>
        <time>2025-02-22T14:26:33.653Z</time>
      </trkpt>
      <trkpt lat="48.82247" lon="-3.51447">
        <ele>18.34</ele>
        <time>2025-02-22T14:26:34.029Z</time>
      </trkpt>
      <trkpt lat="48.82232" lon="-3.51475">
        <ele>18.63</ele>
        <time>2025-02-22T14:26:34.413Z</time>
      </trkpt>
      <trkpt lat="48.82213" lon="-3.51451">
        <ele>18.85</ele>
        <time>2025-02-22T14:26:34.805Z</time>
      </trkpt>
      <trkpt lat="48.82189" lon="-3.51449">
        <ele>19.02</ele>
        <time>2025-02-22T14:26:35.205Z</time>
      </trkpt>
      <trkpt lat="48.82177" lon="-3.5142">
        <ele>19.08</ele>
        <time>2025-02-22T14:26:35.613Z</time>
      </trkpt>
      <trkpt lat="48.82165" lon="-3.51391">
        <ele>19.17</ele>
        <time>2025-02-22T14:26:36.028Z</time>
      </trkpt>
      <trkpt lat="48.82155" lon="-3.51359">
        <ele>19.23</ele>
        <time>2025-02-22T14:26:36.451Z</time>
      </trkpt>
      <trkpt lat="48.82153" lon="-3.51369">
        <ele>19.21</ele>
        <time>2025-02-22T14:26:36.877Z</time>
      </trkpt>
      <trkpt lat="48.82148" lon="-3.51374">
        <ele>19.14</ele>
        <time>2025-02-22T14:26:37.304Z</time>
      </trkpt>
      <trkpt lat="48.82148" lon="-3.51374">
        <ele>19.14</ele>
        <time>2025-02-22T14:26:37.731Z</time>
      </trkpt>
      <trkpt lat="48.82126" lon="-3.51399">
        <ele>19.06</ele>
        <time>2025-02-22T14:26:38.168Z</time>
      </trkpt>
      <trkpt lat="48.82103" lon="-3.51423">
        <ele>18.83</ele>
        <time>2025-02-22T14:26:38.614Z</time>
      </trkpt>
      <trkpt lat="48.8209" lon="-3.51449">
        <ele>18.55</ele>
        <time>2025-02-22T14:26:39.067Z</time>
      </trkpt>
      <trkpt lat="48.82077" lon="-3.51475">
        <ele>18.21</ele>
        <time>2025-02-22T14:26:39.527Z</time>
      </trkpt>
      <trkpt lat="48.82065" lon="-3.51479">
        <ele>17.83</ele>
        <time>2025-02-22T14:26:39.992Z</time>
      </trkpt>
      <trkpt lat="48.8205" lon="-3.51468">
        <ele>17.4</ele>
        <time>2025-02-22T14:26:40.462Z</time>
      </trkpt>
      <trkpt lat="48.82045" lon="-3.51468">
        <ele>16.98</ele>
        <time>2025-02-22T14:26:40.933Z</time>
      </trkpt>
      <trkpt lat="48.82028" lon="-3.51502">
        <ele>16.48</ele>
        <time>2025-02-22T14:26:41.414Z</time>
      </trkpt>
      <trkpt lat="48.82017" lon="-3.51505">
        <ele>15.97</ele>
        <time>2025-02-22T14:26:41.899Z</time>
      </trkpt>
      <trkpt lat="48.82017" lon="-3.51496">
        <ele>15.55</ele>
        <time>2025-02-22T14:26:42.385Z</time>
      </trkpt>
      <trkpt lat="48.82002" lon="-3.51481">
        <ele>15.12</ele>
        <time>2025-02-22T14:26:42.877Z</time>
      </trkpt>
      <trkpt lat="48.81974" lon="-3.51477">
        <ele>14.6</ele>
        <time>2025-02-22T14:26:43.379Z</time>
      </trkpt>
      <trkpt lat="48.81947" lon="-3.51473">
        <ele>14.2</ele>
        <time>2025-02-22T14:26:43.890Z</time>
      </trkpt>
      <trkpt lat="48.81919" lon="-3.5147">
        <ele>13.79</ele>
        <time>2025-02-22T14:26:44.411Z</time>
      </trkpt>
      <trkpt lat="48.81891" lon="-3.51466">
        <ele>13.44</ele>
        <time>2025-02-22T14:26:44.941Z</time>
      </trkpt>
      <trkpt lat="48.81863" lon="-3.51462">
        <ele>13.16</ele>
        <time>2025-02-22T14:26:45.480Z</time>
      </trkpt>
      <trkpt lat="48.81835" lon="-3.51458">
        <ele>13.04</ele>
        <time>2025-02-22T14:26:46.029Z</time>
      </trkpt>
      <trkpt lat="48.81807" lon="-3.51455">
        <ele>13.01</ele>
        <time>2025-02-22T14:26:46.587Z</time>
      </trkpt>
      <trkpt lat="48.81779" lon="-3.51451">
        <ele>12.89</ele>
        <time>2025-02-22T14:26:47.154Z</time>
      </trkpt>
      <trkpt lat="48.81755" lon="-3.51447">
        <ele>12.84</ele>
        <time>2025-02-22T14:26:47.730Z</time>
      </trkpt>
      <trkpt lat="48.8173" lon="-3.51442">
        <ele>12.75</ele>
        <time>2025-02-22T14:26:48.314Z</time>
      </trkpt>
      <trkpt lat="48.8173" lon="-3.51442">
        <ele>12.75</ele>
        <time>2025-02-22T14:26:48.898Z</time>
      </trkpt>
      <trkpt lat="48.8173" lon="-3.51442">
        <ele>12.76</ele>
        <time>2025-02-22T14:26:49.482Z</time>
      </trkpt>
      <trkpt lat="48.8173" lon="-3.51442">
        <ele>12.75</ele>
        <time>2025-02-22T14:26:50.066Z</time>
      </trkpt>
      <trkpt lat="48.81734" lon="-3.51481">
        <ele>12.88</ele>
        <time>2025-02-22T14:26:50.658Z</time>
      </trkpt>
      <trkpt lat="48.81716" lon="-3.515">
        <ele>12.97</ele>
        <time>2025-02-22T14:26:51.258Z</time>
      </trkpt>
      <trkpt lat="48.81697" lon="-3.51518">
        <ele>13.14</ele>
        <time>2025-02-22T14:26:51.865Z</time>
      </trkpt>
      <trkpt lat="48.81678" lon="-3.51537">
        <ele>13.32</ele>
        <time>2025-02-22T14:26:52.480Z</time>
      </trkpt>
      <trkpt lat="48.81664" lon="-3.5155">
        <ele>13.49</ele>
        <time>2025-02-22T14:26:53.100Z</time>
      </trkpt>
      <trkpt lat="48.8165" lon="-3.51563">
        <ele>13.66</ele>
        <time>2025-02-22T14:26:53.726Z</time>
      </trkpt>
      <trkpt lat="48.81625" lon="-3.51573">
        <ele>13.75</ele>
        <time>2025-02-22T14:26:54.361Z</time>
      </trkpt>
      <trkpt lat="48.81599" lon="-3.51584">
        <ele>13.84</ele>
        <time>2025-02-22T14:26:55.004Z</time>
      </trkpt>
      <trkpt lat="48.81583" lon="-3.51596">
        <ele>13.94</ele>
        <time>2025-02-22T14:26:55.653Z</time>
      </trkpt>
      <trkpt lat="48.81567" lon="-3.51608">
        <ele>14.06</ele>
        <time>2025-02-22T14:26:56.308Z</time>
      </trkpt>
      <trkpt lat="48.81547" lon="-3.51625">
        <ele>14.21</ele>
        <time>2025-02-22T14:26:56.971Z</time>
      </trkpt>
      <trkpt lat="48.81531" lon="-3.51649">
        <ele>14.37</ele>
        <time>2025-02-22T14:26:57.642Z</time>
      </trkpt>
      <trkpt lat="48.81515" lon="-3.51673">
        <ele>14.5</ele>
        <time>2025-02-22T14:26:58.320Z</time>
      </trkpt>
      <trkpt lat="48.81498" lon="-3.51698">
        <ele>14.58</ele>
        <time>2025-02-22T14:26:59.006Z</time>
      </trkpt>
      <trkpt lat="48.81485" lon="-3.51668">
        <ele>14.71</ele>
        <time>2025-02-22T14:26:59.700Z</time>
      </trkpt>
      <trkpt lat="48.81472" lon="-3.51638">
        <ele>14.9</ele>
        <time>2025-02-22T14:27:00.402Z</time>
      </trkpt>
      <trkpt lat="48.81464" lon="-3.5161">
        <ele>14.96</ele>
        <time>2025-02-22T14:27:01.110Z</time>
      </trkpt>
      <trkpt lat="48.81455" lon="-3.51582">
        <ele>15.06</ele>
        <time>2025-02-22T14:27:01.825Z</time>
      </trkpt>
      <trkpt lat="48.81447" lon="-3.51545">
        <ele>15.15</ele>
        <time>2025-02-22T14:27:02.549Z</time>
      </trkpt>
      <trkpt lat="48.81439" lon="-3.51509">
        <ele>15.26</ele>
        <time>2025-02-22T14:27:03.281Z</time>
      </trkpt>
      <trkpt lat="48.81432" lon="-3.51472">
        <ele>15.38</ele>
        <time>2025-02-22T14:27:04.022Z</time>
      </trkpt>
      <trkpt lat="48.81417" lon="-3.51432">
        <ele>15.59</ele>
        <time>2025-02-22T14:27:04.773Z</time>
      </trkpt>
      <trkpt lat="48.81404" lon="-3.51414">
        <ele>15.93</ele>
        <time>2025-02-22T14:27:05.530Z</time>
      </trkpt>
      <trkpt lat="48.81391" lon="-3.51397">
        <ele>16.31</ele>
        <time>2025-02-22T14:27:06.292Z</time>
      </trkpt>
      <trkpt lat="48.81387" lon="-3.51363">
        <ele>16.74</ele>
        <time>2025-02-22T14:27:07.062Z</time>
      </trkpt>
      <trkpt lat="48.81365" lon="-3.51337">
        <ele>17.3</ele>
        <time>2025-02-22T14:27:07.841Z</time>
      </trkpt>
      <trkpt lat="48.81345" lon="-3.51319">
        <ele>17.78</ele>
        <time>2025-02-22T14:27:08.628Z</time>
      </trkpt>
      <trkpt lat="48.81324" lon="-3.51301">
        <ele>18.41</ele>
        <time>2025-02-22T14:27:09.423Z</time>
      </trkpt>
      <trkpt lat="48.81305" lon="-3.51288">
        <ele>19.2</ele>
        <time>2025-02-22T14:27:10.225Z</time>
      </trkpt>
      <trkpt lat="48.81305" lon="-3.51288">
        <ele>19.21</ele>
        <time>2025-02-22T14:27:11.027Z</time>
      </trkpt>
      <trkpt lat="48.81305" lon="-3.51288">
        <ele>20.01</ele>
        <time>2025-02-22T14:27:11.829Z</time>
      </trkpt>
      <trkpt lat="48.81286" lon="-3.51275">
        <ele>20.99</ele>
        <time>2025-02-22T14:27:12.638Z</time>
      </trkpt>
      <trkpt lat="48.81262" lon="-3.51256">
        <ele>22.08</ele>
        <time>2025-02-22T14:27:13.456Z</time>
      </trkpt>
      <trkpt lat="48.81239" lon="-3.51223">
        <ele>23.24</ele>
        <time>2025-02-22T14:27:14.284Z</time>
      </trkpt>
      <trkpt lat="48.81217" lon="-3.51191">
        <ele>24.42</ele>
        <time>2025-02-22T14:27:15.123Z</time>
      </trkpt>
      <trkpt lat="48.81193" lon="-3.51169">
        <ele>25.76</ele>
        <time>2025-02-22T14:27:15.971Z</time>
      </trkpt>
      <trkpt lat="48.8117" lon="-3.51146">
        <ele>27.04</ele>
        <time>2025-02-22T14:27:16.828Z</time>
      </trkpt>
      <trkpt lat="48.81166" lon="-3.51135">
        <ele>28.24</ele>
        <time>2025-02-22T14:27:17.688Z</time>
      </trkpt>
      <trkpt lat="48.8115" lon="-3.51105">
        <ele>29.51</ele>
        <time>2025-02-22T14:27:18.556Z</time>
      </trkpt>
      <trkpt lat="48.81143" lon="-3.51083">
        <ele>30.8</ele>
        <time>2025-02-22T14:27:19.430Z</time>
      </trkpt>
      <trkpt lat="48.81135" lon="-3.5106">
        <ele>32.13</ele>
        <time>2025-02-22T14:27:20.309Z</time>
      </trkpt>
      <trkpt lat="48.81129" lon="-3.5105">
        <ele>33.35</ele>
        <time>2025-02-22T14:27:21.192Z</time>
      </trkpt>
      <trkpt lat="48.81108" lon="-3.51057">
        <ele>34.61</ele>
        <time>2025-02-22T14:27:22.082Z</time>
      </trkpt>
      <trkpt lat="48.81086" lon="-3.51065">
        <ele>35.8</ele>
        <time>2025-02-22T14:27:22.979Z</time>
      </trkpt>
      <trkpt lat="48.81065" lon="-3.5108">
        <ele>36.96</ele>
        <time>2025-02-22T14:27:23.884Z</time>
      </trkpt>
      <trkpt lat="48.81065" lon="-3.51103">
        <ele>37.9</ele>
        <time>2025-02-22T14:27:24.794Z</time>
      </trkpt>
      <trkpt lat="48.8106" lon="-3.51135">
        <ele>38.71</ele>
        <time>2025-02-22T14:27:25.712Z</time>
      </trkpt>
      <trkpt lat="48.81056" lon="-3.51166">
        <ele>39.23</ele>
        <time>2025-02-22T14:27:26.637Z</time>
      </trkpt>
      <trkpt lat="48.81052" lon="-3.51198">
        <ele>39.61</ele>
        <time>2025-02-22T14:27:27.569Z</time>
      </trkpt>
      <trkpt lat="48.81051" lon="-3.51225">
        <ele>39.84</ele>
        <time>2025-02-22T14:27:28.507Z</time>
      </trkpt>
      <trkpt lat="48.8105" lon="-3.51251">
        <ele>39.97</ele>
        <time>2025-02-22T14:27:29.451Z</time>
      </trkpt>
      <trkpt lat="48.81045" lon="-3.51279">
        <ele>39.91</ele>
        <time>2025-02-22T14:27:30.401Z</time>
      </trkpt>
      <trkpt lat="48.81041" lon="-3.51307">
        <ele>39.74</ele>
        <time>2025-02-22T14:27:31.357Z</time>
      </trkpt>
      <trkpt lat="48.8104" lon="-3.51334">
        <ele>39.45</ele>
        <time>2025-02-22T14:27:32.319Z</time>
      </trkpt>
      <trkpt lat="48.81039" lon="-3.51361">
        <ele>39.07</ele>
        <time>2025-02-22T14:27:33.287Z</time>
      </trkpt>
      <trkpt lat="48.81035" lon="-3.51382">
        <ele>38.65</ele>
        <time>2025-02-22T14:27:34.260Z</time>
      </trkpt>
      <trkpt lat="48.81032" lon="-3.5139">
        <ele>38.2</ele>
        <time>2025-02-22T14:27:35.235Z</time>
      </trkpt>
      <trkpt lat="48.81032" lon="-3.5139">
        <ele>38.2</ele>
        <time>2025-02-22T14:27:36.210Z</time>
      </trkpt>
      <trkpt lat="48.81022" lon="-3.51424">
        <ele>37.59</ele>
        <time>2025-02-22T14:27:37.193Z</time>
      </trkpt>
      <trkpt lat="48.81012" lon="-3.51458">
        <ele>37.06</ele>
        <time>2025-02-22T14:27:38.184Z</time>
      </trkpt>
      <trkpt lat="48.81002" lon="-3.51492">
        <ele>36.6</ele>
        <time>2025-02-22T14:27:39.183Z</time>
      </trkpt>
      <trkpt lat="48.80997" lon="-3.51527">
        <ele>36.12</ele>
        <time>2025-02-22T14:27:40.190Z</time>
      </trkpt>
      <trkpt lat="48.80992" lon="-3.51563">
        <ele>35.61</ele>
        <time>2025-02-22T14:27:41.205Z</time>
      </trkpt>
      <trkpt lat="48.80992" lon="-3.51563">
        <ele>35.12</ele>
        <time>2025-02-22T14:27:42.220Z</time>
      </trkpt>
      <trkpt lat="48.8099" lon="-3.51588">
        <ele>34.65</ele>
        <time>2025-02-22T14:27:43.241Z</time>
      </trkpt>
      <trkpt lat="48.80993" lon="-3.51625">
        <ele>34.07</ele>
        <time>2025-02-22T14:27:44.270Z</time>
      </trkpt>
      <trkpt lat="48.80996" lon="-3.51661">
        <ele>33.51</ele>
        <time>2025-02-22T14:27:45.307Z</time>
      </trkpt>
      <trkpt lat="48.80997" lon="-3.51694">
        <ele>33.07</ele>
        <time>2025-02-22T14:27:46.352Z</time>
      </trkpt>
      <trkpt lat="48.80997" lon="-3.51727">
        <ele>32.67</ele>
        <time>2025-02-22T14:27:47.404Z</time>
      </trkpt>
      <trkpt lat="48.80998" lon="-3.5176">
        <ele>32.3</ele>
        <time>2025-02-22T14:27:48.463Z</time>
      </trkpt>
      <trkpt lat="48.81005" lon="-3.51803">
        <ele>32.07</ele>
        <time>2025-02-22T14:27:49.532Z</time>
      </trkpt>
      <trkpt lat="48.81013" lon="-3.51831">
        <ele>31.72</ele>
        <time>2025-02-22T14:27:50.607Z</time>
      </trkpt>
      <trkpt lat="48.81026" lon="-3.51859">
        <ele>31.37</ele>
        <time>2025-02-22T14:27:51.690Z</time>
      </trkpt>
      <trkpt lat="48.81039" lon="-3.51887">
        <ele>30.91</ele>
        <time>2025-02-22T14:27:52.781Z</time>
      </trkpt>
      <trkpt lat="48.81052" lon="-3.51914">
        <ele>30.52</ele>
        <time>2025-02-22T14:27:53.879Z</time>
      </trkpt>
      <trkpt lat="48.81069" lon="-3.51949">
        <ele>30.07</ele>
        <time>2025-02-22T14:27:54.986Z</time>
      </trkpt>
      <trkpt lat="48.81073" lon="-3.51929">
        <ele>29.5</ele>
        <time>2025-02-22T14:27:56.098Z</time>
      </trkpt>
      <trkpt lat="48.81085" lon="-3.51909">
        <ele>28.85</ele>
        <time>2025-02-22T14:27:57.216Z</time>
      </trkpt>
      <trkpt lat="48.81085" lon="-3.51909">
        <ele>28.85</ele>
        <time>2025-02-22T14:27:58.334Z</time>
      </trkpt>
      <trkpt lat="48.81093" lon="-3.51895">
        <ele>28.26</ele>
        <time>2025-02-22T14:27:59.456Z</time>
      </trkpt>
      <trkpt lat="48.81101" lon="-3.51859">
        <ele>27.65</ele>
        <time>2025-02-22T14:28:00.586Z</time>
      </trkpt>
      <trkpt lat="48.8112" lon="-3.51861">
        <ele>27.13</ele>
        <time>2025-02-22T14:28:01.723Z</time>
      </trkpt>
      <trkpt lat="48.81146" lon="-3.51875">
        <ele>26.67</ele>
        <time>2025-02-22T14:28:02.869Z</time>
      </trkpt>
      <trkpt lat="48.81171" lon="-3.5189">
        <ele>26.35</ele>
        <time>2025-02-22T14:28:04.024Z</time>
      </trkpt>
      <trkpt lat="48.81171" lon="-3.5189">
        <ele>26.35</ele>
        <time>2025-02-22T14:28:05.179Z</time>
      </trkpt>
      <trkpt lat="48.81172" lon="-3.51891">
        <ele>26.15</ele>
        <time>2025-02-22T14:28:06.334Z</time>
      </trkpt>
      <trkpt lat="48.81196" lon="-3.51895">
        <ele>26.05</ele>
        <time>2025-02-22T14:28:07.497Z</time>
      </trkpt>
      <trkpt lat="48.81196" lon="-3.51895">
        <ele>26.05</ele>
        <time>2025-02-22T14:28:08.660Z</time>
      </trkpt>
      <trkpt lat="48.81202" lon="-3.51897">
        <ele>26.17</ele>
        <time>2025-02-22T14:28:09.825Z</time>
      </trkpt>
      <trkpt lat="48.81208" lon="-3.51904">
        <ele>26.38</ele>
        <time>2025-02-22T14:28:10.993Z</time>
      </trkpt>
      <trkpt lat="48.81213" lon="-3.51927">
        <ele>26.75</ele>
        <time>2025-02-22T14:28:12.166Z</time>
      </trkpt>
      <trkpt lat="48.81213" lon="-3.51927">
        <ele>27.15</ele>
        <time>2025-02-22T14:28:13.339Z</time>
      </trkpt>
      <trkpt lat="48.81213" lon="-3.51927">
        <ele>26.76</ele>
        <time>2025-02-22T14:28:14.512Z</time>
      </trkpt>
      <trkpt lat="48.81213" lon="-3.51927">
        <ele>27.15</ele>
        <time>2025-02-22T14:28:15.685Z</time>
      </trkpt>
      <trkpt lat="48.81186" lon="-3.51942">
        <ele>28.8</ele>
        <time>2025-02-22T14:28:16.868Z</time>
      </trkpt>
      <trkpt lat="48.81158" lon="-3.51956">
        <ele>29.51</ele>
        <time>2025-02-22T14:28:18.061Z</time>
      </trkpt>
      <trkpt lat="48.81131" lon="-3.5197">
        <ele>30.31</ele>
        <time>2025-02-22T14:28:19.263Z</time>
      </trkpt>
      <trkpt lat="48.81106" lon="-3.51974">
        <ele>31.09</ele>
        <time>2025-02-22T14:28:20.474Z</time>
      </trkpt>
      <trkpt lat="48.81082" lon="-3.51979">
        <ele>31.84</ele>
        <time>2025-02-22T14:28:21.693Z</time>
      </trkpt>
      <trkpt lat="48.81069" lon="-3.51949">
        <ele>30.07</ele>
        <time>2025-02-22T14:28:22.920Z</time>
      </trkpt>
      <trkpt lat="48.81052" lon="-3.51914">
        <ele>30.52</ele>
        <time>2025-02-22T14:28:24.156Z</time>
      </trkpt>
      <trkpt lat="48.81044" lon="-3.51897">
        <ele>33.18</ele>
        <time>2025-02-22T14:28:25.397Z</time>
      </trkpt>
      <trkpt lat="48.81044" lon="-3.51897">
        <ele>33.19</ele>
        <time>2025-02-22T14:28:26.638Z</time>
      </trkpt>
      <trkpt lat="48.81028" lon="-3.51864">
        <ele>33.48</ele>
        <time>2025-02-22T14:28:27.888Z</time>
      </trkpt>
      <trkpt lat="48.81013" lon="-3.51831">
        <ele>31.72</ele>
        <time>2025-02-22T14:28:29.147Z</time>
      </trkpt>
      <trkpt lat="48.81009" lon="-3.51817">
        <ele>33.61</ele>
        <time>2025-02-22T14:28:30.409Z</time>
      </trkpt>
      <trkpt lat="48.81009" lon="-3.51817">
        <ele>33.62</ele>
        <time>2025-02-22T14:28:31.671Z</time>
      </trkpt>
      <trkpt lat="48.81013" lon="-3.51831">
        <ele>31.72</ele>
        <time>2025-02-22T14:28:32.936Z</time>
      </trkpt>
      <trkpt lat="48.81028" lon="-3.51864">
        <ele>33.48</ele>
        <time>2025-02-22T14:28:34.210Z</time>
      </trkpt>
      <trkpt lat="48.81044" lon="-3.51897">
        <ele>33.19</ele>
        <time>2025-02-22T14:28:35.493Z</time>
      </trkpt>
      <trkpt lat="48.81044" lon="-3.51897">
        <ele>33.19</ele>
        <time>2025-02-22T14:28:36.776Z</time>
      </trkpt>
      <trkpt lat="48.81052" lon="-3.51914">
        <ele>30.52</ele>
        <time>2025-02-22T14:28:38.064Z</time>
      </trkpt>
      <trkpt lat="48.81069" lon="-3.51949">
        <ele>30.07</ele>
        <time>2025-02-22T14:28:39.361Z</time>
      </trkpt>
      <trkpt lat="48.81082" lon="-3.51979">
        <ele>31.84</ele>
        <time>2025-02-22T14:28:40.666Z</time>
      </trkpt>
      <trkpt lat="48.81106" lon="-3.51974">
        <ele>31.09</ele>
        <time>2025-02-22T14:28:41.979Z</time>
      </trkpt>
      <trkpt lat="48.81131" lon="-3.5197">
        <ele>30.31</ele>
        <time>2025-02-22T14:28:43.301Z</time>
      </trkpt>
      <trkpt lat="48.81158" lon="-3.51956">
        <ele>29.51</ele>
        <time>2025-02-22T14:28:44.632Z</time>
      </trkpt>
      <trkpt lat="48.81186" lon="-3.51942">
        <ele>28.8</ele>
        <time>2025-02-22T14:28:45.973Z</time>
      </trkpt>
      <trkpt lat="48.81213" lon="-3.51927">
        <ele>27.15</ele>
        <time>2025-02-22T14:28:47.324Z</time>
      </trkpt>
      <trkpt lat="48.81213" lon="-3.51927">
        <ele>27.15</ele>
        <time>2025-02-22T14:28:48.675Z</time>
      </trkpt>
      <trkpt lat="48.81213" lon="-3.51927">
        <ele>26.76</ele>
        <time>2025-02-22T14:28:50.026Z</time>
      </trkpt>
      <trkpt lat="48.81213" lon="-3.51927">
        <ele>27.15</ele>
        <time>2025-02-22T14:28:51.377Z</time>
      </trkpt>
      <trkpt lat="48.81213" lon="-3.51927">
        <ele>26.76</ele>
        <time>2025-02-22T14:28:52.728Z</time>
      </trkpt>
      <trkpt lat="48.81208" lon="-3.51904">
        <ele>26.38</ele>
        <time>2025-02-22T14:28:54.084Z</time>
      </trkpt>
      <trkpt lat="48.81202" lon="-3.51897">
        <ele>26.17</ele>
        <time>2025-02-22T14:28:55.442Z</time>
      </trkpt>
      <trkpt lat="48.81196" lon="-3.51895">
        <ele>26.05</ele>
        <time>2025-02-22T14:28:56.803Z</time>
      </trkpt>
      <trkpt lat="48.81196" lon="-3.51895">
        <ele>26.05</ele>
        <time>2025-02-22T14:28:58.164Z</time>
      </trkpt>
      <trkpt lat="48.81172" lon="-3.51891">
        <ele>26.15</ele>
        <time>2025-02-22T14:28:59.533Z</time>
      </trkpt>
      <trkpt lat="48.81171" lon="-3.5189">
        <ele>26.34</ele>
        <time>2025-02-22T14:29:00.902Z</time>
      </trkpt>
      <trkpt lat="48.81171" lon="-3.5189">
        <ele>26.35</ele>
        <time>2025-02-22T14:29:02.271Z</time>
      </trkpt>
      <trkpt lat="48.81146" lon="-3.51875">
        <ele>26.67</ele>
        <time>2025-02-22T14:29:03.649Z</time>
      </trkpt>
      <trkpt lat="48.8112" lon="-3.51861">
        <ele>27.13</ele>
        <time>2025-02-22T14:29:05.036Z</time>
      </trkpt>
      <trkpt lat="48.81101" lon="-3.51859">
        <ele>27.65</ele>
        <time>2025-02-22T14:29:06.429Z</time>
      </trkpt>
      <trkpt lat="48.81093" lon="-3.51895">
        <ele>28.26</ele>
        <time>2025-02-22T14:29:07.831Z</time>
      </trkpt>
      <trkpt lat="48.81085" lon="-3.51909">
        <ele>28.84</ele>
        <time>2025-02-22T14:29:09.237Z</time>
      </trkpt>
      <trkpt lat="48.81085" lon="-3.51909">
        <ele>28.85</ele>
        <time>2025-02-22T14:29:10.643Z</time>
      </trkpt>
      <trkpt lat="48.81073" lon="-3.51929">
        <ele>29.5</ele>
        <time>2025-02-22T14:29:12.055Z</time>
      </trkpt>
      <trkpt lat="48.81069" lon="-3.51949">
        <ele>30.07</ele>
        <time>2025-02-22T14:29:13.471Z</time>
      </trkpt>
      <trkpt lat="48.81052" lon="-3.51914">
        <ele>30.52</ele>
        <time>2025-02-22T14:29:14.897Z</time>
      </trkpt>
      <trkpt lat="48.81039" lon="-3.51887">
        <ele>30.91</ele>
        <time>2025-02-22T14:29:16.330Z</time>
      </trkpt>
      <trkpt lat="48.81026" lon="-3.51859">
        <ele>31.37</ele>
        <time>2025-02-22T14:29:17.771Z</time>
      </trkpt>
      <trkpt lat="48.81013" lon="-3.51831">
        <ele>31.72</ele>
        <time>2025-02-22T14:29:19.219Z</time>
      </trkpt>
      <trkpt lat="48.81005" lon="-3.51803">
        <ele>32.07</ele>
        <time>2025-02-22T14:29:20.674Z</time>
      </trkpt>
      <trkpt lat="48.80998" lon="-3.5176">
        <ele>32.3</ele>
        <time>2025-02-22T14:29:22.139Z</time>
      </trkpt>
      <trkpt lat="48.80997" lon="-3.51727">
        <ele>32.67</ele>
        <time>2025-02-22T14:29:23.611Z</time>
      </trkpt>
      <trkpt lat="48.80997" lon="-3.51694">
        <ele>33.07</ele>
        <time>2025-02-22T14:29:25.090Z</time>
      </trkpt>
      <trkpt lat="48.80996" lon="-3.51661">
        <ele>33.51</ele>
        <time>2025-02-22T14:29:26.577Z</time>
      </trkpt>
      <trkpt lat="48.80993" lon="-3.51625">
        <ele>34.07</ele>
        <time>2025-02-22T14:29:28.072Z</time>
      </trkpt>
      <trkpt lat="48.8099" lon="-3.51588">
        <ele>34.65</ele>
        <time>2025-02-22T14:29:29.575Z</time>
      </trkpt>
      <trkpt lat="48.80992" lon="-3.51563">
        <ele>35.12</ele>
        <time>2025-02-22T14:29:31.084Z</time>
      </trkpt>
      <trkpt lat="48.80992" lon="-3.51563">
        <ele>35.61</ele>
        <time>2025-02-22T14:29:32.593Z</time>
      </trkpt>
      <trkpt lat="48.80997" lon="-3.51527">
        <ele>36.12</ele>
        <time>2025-02-22T14:29:34.110Z</time>
      </trkpt>
      <trkpt lat="48.81002" lon="-3.51492">
        <ele>36.6</ele>
        <time>2025-02-22T14:29:35.635Z</time>
      </trkpt>
      <trkpt lat="48.81012" lon="-3.51458">
        <ele>37.06</ele>
        <time>2025-02-22T14:29:37.168Z</time>
      </trkpt>
      <trkpt lat="48.81022" lon="-3.51424">
        <ele>37.59</ele>
        <time>2025-02-22T14:29:38.709Z</time>
      </trkpt>
      <trkpt lat="48.81032" lon="-3.5139">
        <ele>38.19</ele>
        <time>2025-02-22T14:29:40.258Z</time>
      </trkpt>
      <trkpt lat="48.81032" lon="-3.5139">
        <ele>38.2</ele>
        <time>2025-02-22T14:29:41.807Z</time>
      </trkpt>
      <trkpt lat="48.81035" lon="-3.51382">
        <ele>38.65</ele>
        <time>2025-02-22T14:29:43.358Z</time>
      </trkpt>
      <trkpt lat="48.81039" lon="-3.51361">
        <ele>39.07</ele>
        <time>2025-02-22T14:29:44.914Z</time>
      </trkpt>
      <trkpt lat="48.8104" lon="-3.51334">
        <ele>39.45</ele>
        <time>2025-02-22T14:29:46.476Z</time>
      </trkpt>
      <trkpt lat="48.81041" lon="-3.51307">
        <ele>39.74</ele>
        <time>2025-02-22T14:29:48.044Z</time>
      </trkpt>
      <trkpt lat="48.81045" lon="-3.51279">
        <ele>39.91</ele>
        <time>2025-02-22T14:29:49.618Z</time>
      </trkpt>
      <trkpt lat="48.8105" lon="-3.51251">
        <ele>39.97</ele>
        <time>2025-02-22T14:29:51.198Z</time>
      </trkpt>
      <trkpt lat="48.81051" lon="-3.51225">
        <ele>39.84</ele>
        <time>2025-02-22T14:29:52.784Z</time>
      </trkpt>
      <trkpt lat="48.81052" lon="-3.51198">
        <ele>39.61</ele>
        <time>2025-02-22T14:29:54.376Z</time>
      </trkpt>
      <trkpt lat="48.81056" lon="-3.51166">
        <ele>39.23</ele>
        <time>2025-02-22T14:29:55.975Z</time>
      </trkpt>
      <trkpt lat="48.8106" lon="-3.51135">
        <ele>38.71</ele>
        <time>2025-02-22T14:29:57.581Z</time>
      </trkpt>
      <trkpt lat="48.81065" lon="-3.51103">
        <ele>37.9</ele>
        <time>2025-02-22T14:29:59.195Z</time>
      </trkpt>
      <trkpt lat="48.81065" lon="-3.5108">
        <ele>36.96</ele>
        <time>2025-02-22T14:30:00.814Z</time>
      </trkpt>
      <trkpt lat="48.81086" lon="-3.51065">
        <ele>35.8</ele>
        <time>2025-02-22T14:30:02.441Z</time>
      </trkpt>
      <trkpt lat="48.81108" lon="-3.51057">
        <ele>34.61</ele>
        <time>2025-02-22T14:30:04.075Z</time>
      </trkpt>
      <trkpt lat="48.81129" lon="-3.5105">
        <ele>33.35</ele>
        <time>2025-02-22T14:30:05.716Z</time>
      </trkpt>
      <trkpt lat="48.81135" lon="-3.5106">
        <ele>32.13</ele>
        <time>2025-02-22T14:30:07.360Z</time>
      </trkpt>
      <trkpt lat="48.81143" lon="-3.51083">
        <ele>30.8</ele>
        <time>2025-02-22T14:30:09.010Z</time>
      </trkpt>
      <trkpt lat="48.8115" lon="-3.51105">
        <ele>29.51</ele>
        <time>2025-02-22T14:30:10.666Z</time>
      </trkpt>
      <trkpt lat="48.81166" lon="-3.51135">
        <ele>28.24</ele>
        <time>2025-02-22T14:30:12.330Z</time>
      </trkpt>
      <trkpt lat="48.8117" lon="-3.51146">
        <ele>27.04</ele>
        <time>2025-02-22T14:30:13.997Z</time>
      </trkpt>
      <trkpt lat="48.81193" lon="-3.51169">
        <ele>25.76</ele>
        <time>2025-02-22T14:30:15.673Z</time>
      </trkpt>
      <trkpt lat="48.81217" lon="-3.51191">
        <ele>24.42</ele>
        <time>2025-02-22T14:30:17.358Z</time>
      </trkpt>
      <trkpt lat="48.81239" lon="-3.51223">
        <ele>23.24</ele>
        <time>2025-02-22T14:30:19.054Z</time>
      </trkpt>
      <trkpt lat="48.81262" lon="-3.51256">
        <ele>22.08</ele>
        <time>2025-02-22T14:30:20.760Z</time>
      </trkpt>
      <trkpt lat="48.81286" lon="-3.51275">
        <ele>20.99</ele>
        <time>2025-02-22T14:30:22.475Z</time>
      </trkpt>
      <trkpt lat="48.81305" lon="-3.51288">
        <ele>20.01</ele>
        <time>2025-02-22T14:30:24.197Z</time>
      </trkpt>
      <trkpt lat="48.81305" lon="-3.51288">
        <ele>20.01</ele>
        <time>2025-02-22T14:30:25.919Z</time>
      </trkpt>
      <trkpt lat="48.81305" lon="-3.51288">
        <ele>19.21</ele>
        <time>2025-02-22T14:30:27.641Z</time>
      </trkpt>
      <trkpt lat="48.81324" lon="-3.51301">
        <ele>18.41</ele>
        <time>2025-02-22T14:30:29.370Z</time>
      </trkpt>
      <trkpt lat="48.81345" lon="-3.51319">
        <ele>17.78</ele>
        <time>2025-02-22T14:30:31.107Z</time>
      </trkpt>
      <trkpt lat="48.81365" lon="-3.51337">
        <ele>17.3</ele>
        <time>2025-02-22T14:30:32.852Z</time>
      </trkpt>
      <trkpt lat="48.81387" lon="-3.51363">
        <ele>16.74</ele>
        <time>2025-02-22T14:30:34.606Z</time>
      </trkpt>
      <trkpt lat="48.81391" lon="-3.51397">
        <ele>16.31</ele>
        <time>2025-02-22T14:30:36.368Z</time>
      </trkpt>
      <trkpt lat="48.81404" lon="-3.51414">
        <ele>15.93</ele>
        <time>2025-02-22T14:30:38.135Z</time>
      </trkpt>
      <trkpt lat="48.81417" lon="-3.51432">
        <ele>15.59</ele>
        <time>2025-02-22T14:30:39.908Z</time>
      </trkpt>
      <trkpt lat="48.81432" lon="-3.51472">
        <ele>15.38</ele>
        <time>2025-02-22T14:30:41.691Z</time>
      </trkpt>
      <trkpt lat="48.81439" lon="-3.51509">
        <ele>15.26</ele>
        <time>2025-02-22T14:30:43.483Z</time>
      </trkpt>
      <trkpt lat="48.81447" lon="-3.51545">
        <ele>15.15</ele>
        <time>2025-02-22T14:30:45.283Z</time>
      </trkpt>
      <trkpt lat="48.81455" lon="-3.51582">
        <ele>15.06</ele>
        <time>2025-02-22T14:30:47.092Z</time>
      </trkpt>
      <trkpt lat="48.81464" lon="-3.5161">
        <ele>14.96</ele>
        <time>2025-02-22T14:30:48.907Z</time>
      </trkpt>
      <trkpt lat="48.81472" lon="-3.51638">
        <ele>14.9</ele>
        <time>2025-02-22T14:30:50.729Z</time>
      </trkpt>
      <trkpt lat="48.81485" lon="-3.51668">
        <ele>14.71</ele>
        <time>2025-02-22T14:30:52.559Z</time>
      </trkpt>
      <trkpt lat="48.81498" lon="-3.51698">
        <ele>14.58</ele>
        <time>2025-02-22T14:30:54.397Z</time>
      </trkpt>
      <trkpt lat="48.81515" lon="-3.51673">
        <ele>14.5</ele>
        <time>2025-02-22T14:30:56.243Z</time>
      </trkpt>
      <trkpt lat="48.81531" lon="-3.51649">
        <ele>14.37</ele>
        <time>2025-02-22T14:30:58.096Z</time>
      </trkpt>
      <trkpt lat="48.81547" lon="-3.51625">
        <ele>14.21</ele>
        <time>2025-02-22T14:30:59.957Z</time>
      </trkpt>
      <trkpt lat="48.81567" lon="-3.51608">
        <ele>14.06</ele>
        <time>2025-02-22T14:31:01.826Z</time>
      </trkpt>
      <trkpt lat="48.81583" lon="-3.51596">
        <ele>13.94</ele>
        <time>2025-02-22T14:31:03.701Z</time>
      </trkpt>
      <trkpt lat="48.81599" lon="-3.51584">
        <ele>13.84</ele>
        <time>2025-02-22T14:31:05.581Z</time>
      </trkpt>
      <trkpt lat="48.81625" lon="-3.51573">
        <ele>13.75</ele>
        <time>2025-02-22T14:31:07.470Z</time>
      </trkpt>
      <trkpt lat="48.8165" lon="-3.51563">
        <ele>13.66</ele>
        <time>2025-02-22T14:31:09.368Z</time>
      </trkpt>
      <trkpt lat="48.81664" lon="-3.5155">
        <ele>13.49</ele>
        <time>2025-02-22T14:31:11.272Z</time>
      </trkpt>
      <trkpt lat="48.81678" lon="-3.51537">
        <ele>13.32</ele>
        <time>2025-02-22T14:31:13.181Z</time>
      </trkpt>
      <trkpt lat="48.81697" lon="-3.51518">
        <ele>13.14</ele>
        <time>2025-02-22T14:31:15.098Z</time>
      </trkpt>
      <trkpt lat="48.81716" lon="-3.515">
        <ele>12.97</ele>
        <time>2025-02-22T14:31:17.022Z</time>
      </trkpt>
      <trkpt lat="48.81734" lon="-3.51481">
        <ele>12.88</ele>
        <time>2025-02-22T14:31:18.954Z</time>
      </trkpt>
      <trkpt lat="48.8173" lon="-3.51442">
        <ele>12.75</ele>
        <time>2025-02-22T14:31:20.894Z</time>
      </trkpt>
      <trkpt lat="48.8173" lon="-3.51442">
        <ele>12.75</ele>
        <time>2025-02-22T14:31:22.834Z</time>
      </trkpt>
      <trkpt lat="48.8173" lon="-3.51442">
        <ele>12.76</ele>
        <time>2025-02-22T14:31:24.774Z</time>
      </trkpt>
      <trkpt lat="48.8173" lon="-3.51442">
        <ele>12.75</ele>
        <time>2025-02-22T14:31:26.714Z</time>
      </trkpt>
      <trkpt lat="48.81755" lon="-3.51447">
        <ele>12.84</ele>
        <time>2025-02-22T14:31:28.662Z</time>
      </trkpt>
      <trkpt lat="48.81779" lon="-3.51451">
        <ele>12.89</ele>
        <time>2025-02-22T14:31:30.619Z</time>
      </trkpt>
      <trkpt lat="48.81807" lon="-3.51455">
        <ele>13.01</ele>
        <time>2025-02-22T14:31:32.585Z</time>
      </trkpt>
      <trkpt lat="48.81835" lon="-3.51458">
        <ele>13.04</ele>
        <time>2025-02-22T14:31:34.560Z</time>
      </trkpt>
      <trkpt lat="48.81863" lon="-3.51462">
        <ele>13.16</ele>
        <time>2025-02-22T14:31:36.545Z</time>
      </trkpt>
      <trkpt lat="48.81891" lon="-3.51466">
        <ele>13.44</ele>
        <time>2025-02-22T14:31:38.539Z</time>
      </trkpt>
      <trkpt lat="48.81919" lon="-3.5147">
        <ele>13.79</ele>
        <time>2025-02-22T14:31:40.542Z</time>
      </trkpt>
      <trkpt lat="48.81947" lon="-3.51473">
        <ele>14.2</ele>
        <time>2025-02-22T14:31:42.555Z</time>
      </trkpt>
      <trkpt lat="48.81974" lon="-3.51477">
        <ele>14.6</ele>
        <time>2025-02-22T14:31:44.577Z</time>
      </trkpt>
      <trkpt lat="48.82002" lon="-3.51481">
        <ele>15.12</ele>
        <time>2025-02-22T14:31:46.608Z</time>
      </trkpt>
      <trkpt lat="48.82017" lon="-3.51496">
        <ele>15.55</ele>
        <time>2025-02-22T14:31:48.645Z</time>
      </trkpt>
      <trkpt lat="48.82017" lon="-3.51505">
        <ele>15.97</ele>
        <time>2025-02-22T14:31:50.684Z</time>
      </trkpt>
      <trkpt lat="48.82028" lon="-3.51502">
        <ele>16.48</ele>
        <time>2025-02-22T14:31:52.727Z</time>
      </trkpt>
      <trkpt lat="48.82045" lon="-3.51468">
        <ele>16.98</ele>
        <time>2025-02-22T14:31:54.779Z</time>
      </trkpt>
      <trkpt lat="48.8205" lon="-3.51468">
        <ele>17.4</ele>
        <time>2025-02-22T14:31:56.833Z</time>
      </trkpt>
      <trkpt lat="48.82065" lon="-3.51479">
        <ele>17.83</ele>
        <time>2025-02-22T14:31:58.892Z</time>
      </trkpt>
      <trkpt lat="48.82077" lon="-3.51475">
        <ele>18.21</ele>
        <time>2025-02-22T14:32:00.956Z</time>
      </trkpt>
      <trkpt lat="48.8209" lon="-3.51449">
        <ele>18.55</ele>
        <time>2025-02-22T14:32:03.027Z</time>
      </trkpt>
      <trkpt lat="48.82103" lon="-3.51423">
        <ele>18.83</ele>
        <time>2025-02-22T14:32:05.105Z</time>
      </trkpt>
      <trkpt lat="48.82126" lon="-3.51399">
        <ele>19.06</ele>
        <time>2025-02-22T14:32:07.192Z</time>
      </trkpt>
      <trkpt lat="48.82148" lon="-3.51374">
        <ele>19.13</ele>
        <time>2025-02-22T14:32:09.288Z</time>
      </trkpt>
      <trkpt lat="48.82148" lon="-3.51374">
        <ele>19.14</ele>
        <time>2025-02-22T14:32:11.384Z</time>
      </trkpt>
      <trkpt lat="48.82153" lon="-3.51369">
        <ele>19.21</ele>
        <time>2025-02-22T14:32:13.482Z</time>
      </trkpt>
      <trkpt lat="48.82155" lon="-3.51359">
        <ele>19.23</ele>
        <time>2025-02-22T14:32:15.583Z</time>
      </trkpt>
      <trkpt lat="48.82165" lon="-3.51391">
        <ele>19.17</ele>
        <time>2025-02-22T14:32:17.692Z</time>
      </trkpt>
      <trkpt lat="48.82177" lon="-3.5142">
        <ele>19.08</ele>
        <time>2025-02-22T14:32:19.808Z</time>
      </trkpt>
      <trkpt lat="48.82189" lon="-3.51449">
        <ele>19.02</ele>
        <time>2025-02-22T14:32:21.932Z</time>
      </trkpt>
      <trkpt lat="48.82213" lon="-3.51451">
        <ele>18.85</ele>
        <time>2025-02-22T14:32:24.064Z</time>
      </trkpt>
      <trkpt lat="48.82232" lon="-3.51475">
        <ele>18.63</ele>
        <time>2025-02-22T14:32:26.204Z</time>
      </trkpt>
      <trkpt lat="48.82247" lon="-3.51447">
        <ele>18.34</ele>
        <time>2025-02-22T14:32:28.352Z</time>
      </trkpt>
      <trkpt lat="48.82253" lon="-3.51442">
        <ele>18.05</ele>
        <time>2025-02-22T14:32:30.502Z</time>
      </trkpt>
      <trkpt lat="48.82266" lon="-3.51463">
        <ele>17.72</ele>
        <time>2025-02-22T14:32:32.658Z</time>
      </trkpt>
      <trkpt lat="48.82279" lon="-3.51483">
        <ele>17.35</ele>
        <time>2025-02-22T14:32:34.821Z</time>
      </trkpt>
      <trkpt lat="48.82298" lon="-3.51513">
        <ele>16.99</ele>
        <time>2025-02-22T14:32:36.993Z</time>
      </trkpt>
      <trkpt lat="48.82309" lon="-3.51515">
        <ele>16.65</ele>
        <time>2025-02-22T14:32:39.168Z</time>
      </trkpt>
      <trkpt lat="48.8232" lon="-3.51507">
        <ele>16.33</ele>
        <time>2025-02-22T14:32:41.347Z</time>
      </trkpt>
      <trkpt lat="48.82336" lon="-3.51484">
        <ele>16.03</ele>
        <time>2025-02-22T14:32:43.534Z</time>
      </trkpt>
      <trkpt lat="48.82352" lon="-3.51462">
        <ele>15.78</ele>
        <time>2025-02-22T14:32:45.728Z</time>
      </trkpt>
      <trkpt lat="48.82352" lon="-3.51462">
        <ele>15.6</ele>
        <time>2025-02-22T14:32:47.922Z</time>
      </trkpt>
      <trkpt lat="48.82363" lon="-3.51436">
        <ele>15.45</ele>
        <time>2025-02-22T14:32:50.123Z</time>
      </trkpt>
      <trkpt lat="48.8238" lon="-3.51411">
        <ele>15.36</ele>
        <time>2025-02-22T14:32:52.332Z</time>
      </trkpt>
      <trkpt lat="48.82397" lon="-3.51387">
        <ele>15.36</ele>
        <time>2025-02-22T14:32:54.549Z</time>
      </trkpt>
      <trkpt lat="48.82395" lon="-3.51384">
        <ele>15.33</ele>
        <time>2025-02-22T14:32:56.766Z</time>
      </trkpt>
      <trkpt lat="48.82395" lon="-3.51384">
        <ele>15.33</ele>
        <time>2025-02-22T14:32:58.983Z</time>
      </trkpt>
      <trkpt lat="48.82395" lon="-3.51384">
        <ele>15.35</ele>
        <time>2025-02-22T14:33:01.200Z</time>
      </trkpt>
      <trkpt lat="48.82397" lon="-3.51387">
        <ele>15.42</ele>
        <time>2025-02-22T14:33:03.418Z</time>
      </trkpt>
      <trkpt lat="48.82413" lon="-3.514">
        <ele>15.57</ele>
        <time>2025-02-22T14:33:05.643Z</time>
      </trkpt>
      <trkpt lat="48.82429" lon="-3.51414">
        <ele>15.73</ele>
        <time>2025-02-22T14:33:07.874Z</time>
      </trkpt>
      <trkpt lat="48.8244" lon="-3.51424">
        <ele>15.84</ele>
        <time>2025-02-22T14:33:10.109Z</time>
      </trkpt>
      <trkpt lat="48.8244" lon="-3.51424">
        <ele>15.85</ele>
        <time>2025-02-22T14:33:12.344Z</time>
      </trkpt>
      <trkpt lat="48.82447" lon="-3.51429">
        <ele>16.03</ele>
        <time>2025-02-22T14:33:14.581Z</time>
      </trkpt>
      <trkpt lat="48.82472" lon="-3.51438">
        <ele>16.26</ele>
        <time>2025-02-22T14:33:16.827Z</time>
      </trkpt>
      <trkpt lat="48.82503" lon="-3.5144">
        <ele>16.59</ele>
        <time>2025-02-22T14:33:19.084Z</time>
      </trkpt>
      <trkpt lat="48.82535" lon="-3.51442">
        <ele>17.02</ele>
        <time>2025-02-22T14:33:21.351Z</time>
      </trkpt>
      <trkpt lat="48.82557" lon="-3.51423">
        <ele>17.28</ele>
        <time>2025-02-22T14:33:23.627Z</time>
      </trkpt>
      <trkpt lat="48.8258" lon="-3.51404">
        <ele>17.59</ele>
        <time>2025-02-22T14:33:25.911Z</time>
      </trkpt>
      <trkpt lat="48.82597" lon="-3.51382">
        <ele>17.93</ele>
        <time>2025-02-22T14:33:28.203Z</time>
      </trkpt>
      <trkpt lat="48.82603" lon="-3.51408">
        <ele>18.34</ele>
        <time>2025-02-22T14:33:30.501Z</time>
      </trkpt>
      <trkpt lat="48.8261" lon="-3.51434">
        <ele>18.83</ele>
        <time>2025-02-22T14:33:32.805Z</time>
      </trkpt>
      <trkpt lat="48.82629" lon="-3.5146">
        <ele>19.3</ele>
        <time>2025-02-22T14:33:35.117Z</time>
      </trkpt>
      <trkpt lat="48.82646" lon="-3.51491">
        <ele>19.78</ele>
        <time>2025-02-22T14:33:37.438Z</time>
      </trkpt>
      <trkpt lat="48.82663" lon="-3.51522">
        <ele>20.18</ele>
        <time>2025-02-22T14:33:39.768Z</time>
      </trkpt>
      <trkpt lat="48.82684" lon="-3.51555">
        <ele>20.59</ele>
        <time>2025-02-22T14:33:42.108Z</time>
      </trkpt>
      <trkpt lat="48.82704" lon="-3.51588">
        <ele>20.99</ele>
        <time>2025-02-22T14:33:44.458Z</time>
      </trkpt>
      <trkpt lat="48.82717" lon="-3.51597">
        <ele>21.37</ele>
        <time>2025-02-22T14:33:46.813Z</time>
      </trkpt>
      <trkpt lat="48.82739" lon="-3.51608">
        <ele>21.85</ele>
        <time>2025-02-22T14:33:49.176Z</time>
      </trkpt>
      <trkpt lat="48.82762" lon="-3.51618">
        <ele>22.37</ele>
        <time>2025-02-22T14:33:51.547Z</time>
      </trkpt>
      <trkpt lat="48.82766" lon="-3.51614">
        <ele>22.84</ele>
        <time>2025-02-22T14:33:53.919Z</time>
      </trkpt>
      <trkpt lat="48.82766" lon="-3.51614">
        <ele>22.85</ele>
        <time>2025-02-22T14:33:56.291Z</time>
      </trkpt>
      <trkpt lat="48.82773" lon="-3.51618">
        <ele>23.3</ele>
        <time>2025-02-22T14:33:58.666Z</time>
      </trkpt>
      <trkpt lat="48.82775" lon="-3.51623">
        <ele>23.72</ele>
        <time>2025-02-22T14:34:01.042Z</time>
      </trkpt>
      <trkpt lat="48.82794" lon="-3.51635">
        <ele>24.14</ele>
        <time>2025-02-22T14:34:03.425Z</time>
      </trkpt>
      <trkpt lat="48.8282" lon="-3.51659">
        <ele>24.58</ele>
        <time>2025-02-22T14:34:05.818Z</time>
      </trkpt>
      <trkpt lat="48.82833" lon="-3.51681">
        <ele>24.78</ele>
        <time>2025-02-22T14:34:08.217Z</time>
      </trkpt>
      <trkpt lat="48.82844" lon="-3.51705">
        <ele>24.81</ele>
        <time>2025-02-22T14:34:10.623Z</time>
      </trkpt>
      <trkpt lat="48.82855" lon="-3.5173">
        <ele>24.53</ele>
        <time>2025-02-22T14:34:13.035Z</time>
      </trkpt>
      <trkpt lat="48.82855" lon="-3.5173">
        <ele>24.53</ele>
        <time>2025-02-22T14:34:15.448Z</time>
      </trkpt>
      <trkpt lat="48.82861" lon="-3.51743">
        <ele>24.01</ele>
        <time>2025-02-22T14:34:17.864Z</time>
      </trkpt>
      <trkpt lat="48.82868" lon="-3.51781">
        <ele>23.18</ele>
        <time>2025-02-22T14:34:20.289Z</time>
      </trkpt>
      <trkpt lat="48.82875" lon="-3.51819">
        <ele>21.94</ele>
        <time>2025-02-22T14:34:22.722Z</time>
      </trkpt>
      <trkpt lat="48.82883" lon="-3.51857">
        <ele>20.66</ele>
        <time>2025-02-22T14:34:25.164Z</time>
      </trkpt>
      <trkpt lat="48.8289" lon="-3.51895">
        <ele>19.34</ele>
        <time>2025-02-22T14:34:27.615Z</time>
      </trkpt>
      <trkpt lat="48.82897" lon="-3.51934">
        <ele>18.05</ele>
        <time>2025-02-22T14:34:30.075Z</time>
      </trkpt>
      <trkpt lat="48.82897" lon="-3.51944">
        <ele>16.98</ele>
        <time>2025-02-22T14:34:32.537Z</time>
      </trkpt>
      <trkpt lat="48.829" lon="-3.51977">
        <ele>15.89</ele>
        <time>2025-02-22T14:34:35.006Z</time>
      </trkpt>
      <trkpt lat="48.82903" lon="-3.52009">
        <ele>14.86</ele>
        <time>2025-02-22T14:34:37.483Z</time>
      </trkpt>
      <trkpt lat="48.82903" lon="-3.5201">
        <ele>14.86</ele>
        <time>2025-02-22T14:34:39.960Z</time>
      </trkpt>
      <trkpt lat="48.82906" lon="-3.52035">
        <ele>14</ele>
        <time>2025-02-22T14:34:42.442Z</time>
      </trkpt>
      <trkpt lat="48.82908" lon="-3.5206">
        <ele>13.17</ele>
        <time>2025-02-22T14:34:44.930Z</time>
      </trkpt>
      <trkpt lat="48.8291" lon="-3.52095">
        <ele>12.27</ele>
        <time>2025-02-22T14:34:47.426Z</time>
      </trkpt>
      <trkpt lat="48.82912" lon="-3.5213">
        <ele>11.34</ele>
        <time>2025-02-22T14:34:49.929Z</time>
      </trkpt>
      <trkpt lat="48.82914" lon="-3.52165">
        <ele>10.61</ele>
        <time>2025-02-22T14:34:52.440Z</time>
      </trkpt>
      <trkpt lat="48.82895" lon="-3.52162">
        <ele>9.99</ele>
        <time>2025-02-22T14:34:54.958Z</time>
      </trkpt>
      <trkpt lat="48.82876" lon="-3.52158">
        <ele>9.38</ele>
        <time>2025-02-22T14:34:57.482Z</time>
      </trkpt>
    </trkseg>
  </trk>
</gpx>